TimeCST,TemperatureF,Dew PointF,Humidity,Sea Level PressureIn,VisibilityMPH,Wind Direction,Wind SpeedMPH,Gust SpeedMPH,PrecipitationIn,Events,Conditions,WindDirDegrees,DateUTC
12:15 AM,32.0,26.6,80,30.37,8.0,North,3.5,-,N/A,,Clear,10,2013-01-07 06:15:00
12:35 AM,30.2,26.6,86,30.37,7.0,North,4.6,-,N/A,,Clear,10,2013-01-07 06:35:00
12:55 AM,32.0,26.6,80,30.36,7.0,North,5.8,-,N/A,,Clear,10,2013-01-07 06:55:00
1:15 AM,32.0,28.4,87,30.37,8.0,North,3.5,-,N/A,,Clear,10,2013-01-07 07:15:00
1:35 AM,30.2,26.6,86,30.36,7.0,Calm,Calm,-,N/A,,Clear,0,2013-01-07 07:35:00
2:15 AM,28.4,23.0,80,30.36,4.0,Calm,Calm,-,N/A,,Haze,0,2013-01-07 08:15:00
2:35 AM,28.4,23.0,80,30.36,4.0,Calm,Calm,-,N/A,,Haze,0,2013-01-07 08:35:00
2:55 AM,28.4,23.0,80,30.37,5.0,WSW,3.5,-,N/A,,Clear,240,2013-01-07 08:55:00
3:15 AM,28.4,23.0,80,30.36,3.0,Calm,Calm,-,N/A,,Clear,0,2013-01-07 09:15:00
3:35 AM,28.4,23.0,80,30.37,2.0,Calm,Calm,-,N/A,,Haze,0,2013-01-07 09:35:00
3:55 AM,26.6,23.0,86,30.37,0.2,Calm,Calm,-,N/A,Fog,Light Freezing Fog,0,2013-01-07 09:55:00
4:15 AM,26.6,23.0,86,30.37,0.5,Calm,Calm,-,N/A,Fog,Light Freezing Fog,0,2013-01-07 10:15:00
4:35 AM,26.6,21.2,80,30.37,1.2,Calm,Calm,-,N/A,,Haze,0,2013-01-07 10:35:00
4:55 AM,26.6,21.2,80,30.38,0.2,Calm,Calm,-,N/A,,Haze,0,2013-01-07 10:55:00
5:15 AM,24.8,19.4,80,30.38,0.5,North,3.5,-,N/A,,Haze,360,2013-01-07 11:15:00
5:35 AM,26.6,21.2,80,30.39,4.0,NNE,3.5,-,N/A,,Haze,20,2013-01-07 11:35:00
5:55 AM,26.6,21.2,80,30.39,5.0,NNE,4.6,-,N/A,,Haze,30,2013-01-07 11:55:00
6:15 AM,28.4,23.0,80,30.40,5.0,NNE,5.8,-,N/A,,Haze,30,2013-01-07 12:15:00
6:35 AM,28.4,23.0,80,30.40,5.0,NNE,6.9,-,N/A,,Haze,30,2013-01-07 12:35:00
6:55 AM,28.4,23.0,80,30.41,4.0,NNE,4.6,-,N/A,,Haze,30,2013-01-07 12:55:00
7:15 AM,28.4,23.0,80,30.41,3.0,NNE,5.8,-,N/A,,Haze,20,2013-01-07 13:15:00
7:35 AM,28.4,23.0,80,30.41,3.0,NNE,5.8,-,N/A,,Haze,30,2013-01-07 13:35:00
7:55 AM,30.2,26.6,86,30.41,3.0,NNE,9.2,-,N/A,,Haze,30,2013-01-07 13:55:00
8:15 AM,32.0,28.4,87,30.40,3.0,NNE,8.1,-,N/A,,Clear,30,2013-01-07 14:15:00
8:35 AM,32.0,28.4,87,30.40,3.0,NE,8.1,-,N/A,,Haze,40,2013-01-07 14:35:00
8:55 AM,33.8,30.2,87,30.41,4.0,NE,6.9,-,N/A,,Haze,40,2013-01-07 14:55:00
9:35 AM,37.4,32.0,81,30.40,5.0,NE,5.8,-,N/A,,Haze,40,2013-01-07 15:35:00
10:15 AM,42.8,33.8,70,30.41,7.0,NE,3.5,-,N/A,,Clear,50,2013-01-07 16:15:00
10:35 AM,44.6,33.8,66,30.41,7.0,Calm,Calm,-,N/A,,Clear,0,2013-01-07 16:35:00
10:55 AM,46.4,35.6,66,30.39,8.0,Calm,Calm,-,N/A,,Clear,0,2013-01-07 16:55:00
11:15 AM,48.2,35.6,62,30.39,8.0,Calm,Calm,-,N/A,,Clear,0,2013-01-07 17:15:00
11:55 AM,51.8,35.6,54,30.36,10.0,WSW,3.5,-,N/A,,Clear,240,2013-01-07 17:55:00
12:15 PM,51.8,37.4,58,30.35,9.0,South,3.5,-,N/A,,Clear,180,2013-01-07 18:15:00
12:35 PM,51.8,37.4,58,30.34,8.0,Calm,Calm,-,N/A,,Clear,0,2013-01-07 18:35:00
12:55 PM,53.6,37.4,54,30.32,9.0,WNW,3.5,-,N/A,,Clear,300,2013-01-07 18:55:00
1:15 PM,53.6,37.4,54,30.32,9.0,Calm,Calm,-,N/A,,Clear,0,2013-01-07 19:15:00
1:35 PM,55.4,39.2,54,30.31,9.0,Calm,Calm,-,N/A,,Clear,0,2013-01-07 19:35:00
1:55 PM,55.4,39.2,54,30.30,9.0,NNE,3.5,-,N/A,,Clear,20,2013-01-07 19:55:00
2:15 PM,55.4,39.2,54,30.29,9.0,Calm,Calm,-,N/A,,Clear,0,2013-01-07 20:15:00
2:35 PM,57.2,39.2,51,30.30,6.0,NNE,3.5,-,N/A,,Haze,30,2013-01-07 20:35:00
2:55 PM,55.4,39.2,54,30.29,9.0,Calm,Calm,-,N/A,,Clear,0,2013-01-07 20:55:00
3:15 PM,55.4,39.2,54,30.30,9.0,SSW,5.8,-,N/A,,Clear,210,2013-01-07 21:15:00
3:35 PM,55.4,39.2,54,30.30,9.0,West,3.5,-,N/A,,Clear,280,2013-01-07 21:35:00
3:55 PM,55.4,39.2,54,30.30,10.0,Calm,Calm,-,N/A,,Clear,0,2013-01-07 21:55:00
4:15 PM,55.4,39.2,54,30.29,9.0,Calm,Calm,-,N/A,,Clear,0,2013-01-07 22:15:00
4:35 PM,53.6,37.4,54,30.28,10.0,North,-9999.0,-,N/A,,Clear,0,2013-01-07 22:35:00
4:55 PM,48.2,33.8,58,30.28,9.0,Calm,Calm,-,N/A,,Clear,0,2013-01-07 22:55:00
5:15 PM,42.8,32.0,66,30.27,9.0,Calm,Calm,-,N/A,,Clear,0,2013-01-07 23:15:00
5:35 PM,39.2,32.0,75,30.28,10.0,Calm,Calm,-,N/A,,Clear,0,2013-01-07 23:35:00
5:55 PM,37.4,30.2,75,30.28,10.0,North,-9999.0,-,N/A,,Clear,0,2013-01-07 23:55:00
6:15 PM,35.6,28.4,75,30.27,10.0,Calm,Calm,-,N/A,,Clear,0,2013-01-08 00:15:00
6:35 PM,33.8,28.4,81,30.27,10.0,Calm,Calm,-,N/A,,Clear,0,2013-01-08 00:35:00
6:55 PM,33.8,26.6,75,30.28,9.0,North,-9999.0,-,N/A,,Clear,0,2013-01-08 00:55:00
7:15 PM,32.0,26.6,80,30.28,9.0,Calm,Calm,-,N/A,,Clear,0,2013-01-08 01:15:00
7:35 PM,32.0,26.6,80,30.28,7.0,Calm,Calm,-,N/A,,Clear,0,2013-01-08 01:35:00
7:55 PM,32.0,26.6,80,30.28,9.0,North,-9999.0,-,N/A,,Clear,0,2013-01-08 01:55:00
8:15 PM,32.0,26.6,80,30.28,8.0,Calm,Calm,-,N/A,,Clear,0,2013-01-08 02:15:00
8:55 PM,32.0,24.8,75,30.27,7.0,North,-9999.0,-,N/A,,Clear,0,2013-01-08 02:55:00
9:15 PM,32.0,26.6,80,30.28,7.0,Calm,Calm,-,N/A,,Clear,0,2013-01-08 03:15:00
9:35 PM,32.0,26.6,80,30.28,7.0,North,-9999.0,-,N/A,,Clear,0,2013-01-08 03:35:00
9:55 PM,32.0,26.6,80,30.28,6.0,Calm,Calm,-,N/A,,Haze,0,2013-01-08 03:55:00
10:35 PM,30.2,24.8,80,30.27,7.0,North,-9999.0,-,N/A,,Clear,0,2013-01-08 04:35:00
10:55 PM,30.2,23.0,75,30.27,5.0,North,-9999.0,-,N/A,,Haze,0,2013-01-08 04:55:00
11:15 PM,30.2,23.0,75,30.27,5.0,Calm,Calm,-,N/A,,Haze,0,2013-01-08 05:15:00
11:35 PM,28.4,23.0,80,30.26,5.0,North,-9999.0,-,N/A,,Haze,0,2013-01-08 05:35:00
11:55 PM,30.2,23.0,75,30.26,8.0,North,-9999.0,-,N/A,,Clear,0,2013-01-08 05:55:00